Time;durP1;ratioP1;P1;durP2;ratioP2;P2;SDS_P1;SDS_P2;PMS_P1;PMS_P2;Temp;Humidity;BMP_temperature;BMP_pressure;BME280_temperature;BME280_humidity;BME280_pressure;Samples;Min_cycle;Max_cycle;Signal;HPM_P1;HPM_P2
2023/08/21 00:06:46;;;;;;;5.75;3.00;;;30.00;25.90;;;;;;20917746;28;20049;-58
2023/08/21 00:16:46;;;;;;;8.15;3.47;;;30.00;24.90;;;;;;20917190;28;20048;-56
2023/08/21 00:26:47;;;;;;;8.38;2.65;;;30.10;24.60;;;;;;20915138;28;20044;-57
2023/08/21 00:36:48;;;;;;;7.78;2.10;;;30.10;24.90;;;;;;20914552;28;20549;-57
2023/08/21 00:46:49;;;;;;;7.82;1.95;;;30.00;25.60;;;;;;20915012;28;20048;-57
2023/08/21 00:56:52;;;;;;;5.10;2.63;;;29.90;26.30;;;;;;20914304;28;20041;-56
2023/08/21 01:06:52;;;;;;;7.00;2.50;;;29.90;26.90;;;;;;20913792;28;20379;-57
2023/08/21 01:16:58;;;;;;;11.95;8.05;;;29.90;27.50;;;;;;20913271;28;20041;-56
2023/08/21 01:26:59;;;;;;;5.90;2.28;;;29.80;28.00;;;;;;20912780;28;20471;-56
2023/08/21 01:37:01;;;;;;;7.72;2.50;;;29.70;28.90;;;;;;20911434;28;20048;-56
2023/08/21 01:47:02;;;;;;;7.53;2.47;;;29.70;29.60;;;;;;20912294;28;20409;-56
2023/08/21 01:57:03;;;;;;;5.63;2.10;;;29.60;30.60;;;;;;20911606;28;20080;-57
2023/08/21 02:07:04;;;;;;;9.18;2.58;;;29.60;31.50;;;;;;20912003;28;20452;-56
2023/08/21 02:17:05;;;;;;;10.18;2.70;;;29.50;32.00;;;;;;20926582;28;20128;-57
2023/08/21 02:27:06;;;;;;;9.90;2.53;;;29.50;31.60;;;;;;20925476;28;20156;-56
2023/08/21 02:37:07;;;;;;;5.20;2.38;;;29.40;31.90;;;;;;20925248;28;20071;-56
2023/08/21 02:47:07;;;;;;;10.40;2.67;;;29.10;32.40;;;;;;20924494;28;20379;-56
2023/08/21 02:57:09;;;;;;;4.18;2.05;;;28.70;33.20;;;;;;20923598;28;20044;-56
2023/08/21 03:07:10;;;;;;;4.28;1.90;;;28.10;31.50;;;;;;20921291;28;20056;-56
2023/08/21 03:17:11;;;;;;;;;;;27.60;31.60;;;;;;20922200;28;20474;-57
2023/08/21 03:27:14;;;;;;;5.73;3.23;;;27.30;31.80;;;;;;20919407;28;19970;-55
2023/08/21 03:37:15;;;;;;;7.05;3.65;;;27.20;32.50;;;;;;20920495;28;20045;-56
2023/08/21 03:47:16;;;;;;;6.90;2.90;;;27.20;33.00;;;;;;20919594;28;20398;-57
2023/08/21 03:57:17;;;;;;;7.57;3.95;;;27.10;33.60;;;;;;20918489;28;20045;-55
2023/08/21 04:07:18;;;;;;;9.13;5.15;;;27.10;33.30;;;;;;20917495;28;20049;-56
2023/08/21 04:17:22;;;;;;;4.67;2.33;;;26.90;33.50;;;;;;20917384;28;20431;-56
2023/08/21 04:27:23;;;;;;;4.28;2.50;;;26.90;33.60;;;;;;20916231;28;20088;-56
2023/08/21 04:37:24;;;;;;;6.30;2.57;;;26.80;33.80;;;;;;20915055;28;20091;-56
2023/08/21 04:47:26;;;;;;;7.30;2.70;;;26.90;33.90;;;;;;20914978;28;20049;-56
2023/08/21 04:57:27;;;;;;;6.15;2.65;;;26.80;34.00;;;;;;20914346;28;20107;-56
2023/08/21 05:07:27;;;;;;;7.90;3.00;;;26.90;34.30;;;;;;20913919;28;20044;-57
2023/08/21 05:17:29;;;;;;;9.13;2.63;;;26.70;34.30;;;;;;20913491;28;20040;-57
2023/08/21 05:27:30;;;;;;;3.78;2.58;;;26.60;34.80;;;;;;20911185;28;20052;-57
2023/08/21 05:37:31;;;;;;;10.37;2.00;;;26.60;35.10;;;;;;20912437;28;20469;-56
2023/08/21 05:47:31;;;;;;;4.20;2.40;;;26.40;35.50;;;;;;20923803;28;20127;-56
2023/08/21 05:57:32;;;;;;;4.67;2.40;;;26.40;35.90;;;;;;20926741;28;20077;-57
2023/08/21 06:07:33;;;;;;;8.97;3.07;;;26.40;36.10;;;;;;20925897;28;20049;-56
2023/08/21 06:17:34;;;;;;;9.77;3.23;;;26.50;36.40;;;;;;20926705;28;20037;-56
2023/08/21 06:27:35;;;;;;;10.65;3.17;;;26.50;36.70;;;;;;20925060;28;20053;-57
2023/08/21 06:37:35;;;;;;;9.27;3.10;;;26.60;37.10;;;;;;20924971;28;20102;-57
2023/08/21 06:47:36;;;;;;;11.60;3.20;;;26.70;37.20;;;;;;20923900;28;20436;-56
2023/08/21 06:57:37;;;;;;;7.13;2.37;;;27.00;37.10;;;;;;20921114;28;20124;-55
2023/08/21 07:07:38;;;;;;;9.53;2.67;;;27.50;36.60;;;;;;20922493;28;20041;-56
2023/08/21 07:17:38;;;;;;;8.47;2.33;;;28.10;36.60;;;;;;20921496;28;20068;-58
2023/08/21 07:27:39;;;;;;;;;;;28.60;35.80;;;;;;20919489;28;20057;-56
2023/08/21 07:37:43;;;;;;;6.35;2.60;;;29.10;34.50;;;;;;20919379;28;19920;-57
2023/08/21 07:47:44;;;;;;;6.90;2.78;;;29.50;33.10;;;;;;20917886;28;20124;-57
2023/08/21 07:57:45;;;;;;;7.13;2.80;;;30.10;31.80;;;;;;20918624;28;20060;-57
2023/08/21 08:07:46;;;;;;;4.95;2.92;;;30.30;31.50;;;;;;20917224;28;20099;-56
2023/08/21 08:17:46;;;;;;;7.13;2.95;;;30.70;30.90;;;;;;20916082;28;20047;-57
2023/08/21 08:27:47;;;;;;;5.20;2.80;;;31.00;30.40;;;;;;20916455;28;20100;-57
2023/08/21 08:37:48;;;;;;;7.60;2.78;;;31.10;30.40;;;;;;20916448;28;20408;-56
2023/08/21 08:47:49;;;;;;;7.60;3.10;;;31.30;30.60;;;;;;20915310;28;20043;-56
2023/08/21 08:57:51;;;;;;;6.20;2.88;;;31.50;30.50;;;;;;20913441;28;20110;-57
2023/08/21 09:08:11;;;;;;;6.43;2.90;;;31.80;29.80;;;;;;20913994;28;20057;-56
2023/08/21 09:18:12;;;;;;;6.43;2.95;;;32.00;29.60;;;;;;20912771;28;20128;-57
2023/08/21 09:28:13;;;;;;;11.90;3.13;;;32.10;29.60;;;;;;20912551;28;20080;-56
2023/08/21 09:38:16;;;;;;;13.00;2.95;;;32.40;29.10;;;;;;20912401;28;20049;-56
2023/08/21 09:48:19;;;;;;;7.28;2.90;;;32.50;29.60;;;;;;20911924;28;20045;-58
2023/08/21 09:58:21;;;;;;;8.82;2.78;;;32.60;30.30;;;;;;20911893;28;20116;-57
2023/08/21 10:08:25;;;;;;;7.95;2.85;;;32.90;30.30;;;;;;20911173;28;20044;-59
2023/08/21 10:18:32;;;;;;;7.07;3.03;;;33.10;31.30;;;;;;20909972;28;20115;-58
2023/08/21 10:29:06;;;;;;;6.22;3.05;;;33.10;32.00;;;;;;20910738;28;20064;-59
2023/08/21 10:39:32;;;;;;;5.32;2.45;;;33.20;32.10;;;;;;20924787;28;20072;-57
2023/08/21 10:49:32;;;;;;;14.63;3.30;;;33.40;32.40;;;;;;20922775;28;20124;-57
2023/08/21 10:59:33;;;;;;;10.57;3.30;;;33.60;31.70;;;;;;20922923;28;20080;-56
2023/08/21 11:09:38;;;;;;;9.15;4.22;;;33.80;31.20;;;;;;20920925;28;20053;-56
2023/08/21 11:19:40;;;;;;;6.10;2.70;;;34.20;30.50;;;;;;20922341;28;20505;-57
2023/08/21 11:29:44;;;;;;;9.32;3.22;;;34.50;30.10;;;;;;20920628;28;20079;-56
2023/08/21 11:39:51;;;;;;;11.75;3.63;;;34.60;29.70;;;;;;20919126;28;20053;-57
2023/08/21 11:49:52;;;;;;;7.35;3.08;;;34.80;29.40;;;;;;20919478;28;20378;-57
2023/08/21 11:59:55;;;;;;;7.43;3.10;;;35.10;28.90;;;;;;20917510;28;20056;-58
2023/08/21 12:09:55;;;;;;;10.45;3.20;;;35.30;28.90;;;;;;20918152;28;20487;-57
2023/08/21 12:19:56;;;;;;;9.27;4.18;;;35.50;28.50;;;;;;20917113;28;20099;-56
2023/08/21 12:29:57;;;;;;;7.78;3.17;;;35.80;28.20;;;;;;20916146;28;20064;-57
2023/08/21 12:39:58;;;;;;;10.23;2.67;;;35.90;28.40;;;;;;20915352;28;20128;-57
2023/08/21 12:49:58;;;;;;;5.97;2.75;;;36.30;27.00;;;;;;20914942;28;20048;-57
2023/08/21 12:59:59;;;;;;;7.88;3.38;;;36.50;26.30;;;;;;20913789;28;20116;-57
2023/08/21 13:10:00;;;;;;;3.42;2.45;;;36.60;25.80;;;;;;20913800;28;20437;-57
2023/08/21 13:20:02;;;;;;;7.85;2.53;;;36.60;25.80;;;;;;20913408;28;20063;-57
2023/08/21 13:30:05;;;;;;;7.18;2.38;;;36.60;26.00;;;;;;20912165;28;20060;-56
2023/08/21 13:40:10;;;;;;;5.07;2.28;;;36.90;25.60;;;;;;20910684;28;20041;-56
2023/08/21 13:50:11;;;;;;;7.70;2.55;;;37.00;25.70;;;;;;20911745;28;20046;-57
2023/08/21 14:00:12;;;;;;;5.97;2.25;;;37.10;24.60;;;;;;20911381;28;20056;-57
2023/08/21 14:10:14;;;;;;;5.95;2.53;;;37.30;23.90;;;;;;20923521;28;20045;-57
2023/08/21 14:20:15;;;;;;;3.83;2.05;;;37.40;23.70;;;;;;20925327;28;20041;-57
2023/08/21 14:30:16;;;;;;;4.82;2.38;;;37.40;23.10;;;;;;20923729;28;20057;-57
2023/08/21 14:40:17;;;;;;;3.20;1.92;;;37.50;23.00;;;;;;20923598;28;20040;-57
2023/08/21 14:50:18;;;;;;;4.88;2.03;;;37.50;23.50;;;;;;20924352;28;20091;-56
2023/08/21 15:00:18;;;;;;;3.60;1.98;;;37.60;23.10;;;;;;20923648;28;20045;-56
2023/08/21 15:10:19;;;;;;;3.72;2.20;;;37.60;23.00;;;;;;20922768;28;20174;-57
2023/08/21 15:20:21;;;;;;;4.70;2.00;;;37.50;23.00;;;;;;20921696;28;20045;-57
2023/08/21 15:30:21;;;;;;;5.32;2.33;;;37.60;22.10;;;;;;20921405;28;20057;-57
2023/08/21 15:40:22;;;;;;;7.35;2.30;;;37.90;21.60;;;;;;20921795;28;20417;-58
2023/08/21 15:50:23;;;;;;;4.82;2.60;;;38.00;21.60;;;;;;20919387;28;20048;-58
2023/08/21 16:00:24;;;;;;;8.10;2.88;;;37.80;21.90;;;;;;20919935;28;20041;-58
2023/08/21 16:10:25;;;;;;;3.28;1.70;;;37.80;21.90;;;;;;20918522;28;20048;-58
2023/08/21 16:20:27;;;;;;;4.15;2.20;;;37.80;21.90;;;;;;20917686;28;20049;-57
2023/08/21 16:30:28;;;;;;;4.68;2.60;;;37.70;21.90;;;;;;20914135;28;20057;-56
2023/08/21 16:40:29;;;;;;;5.95;2.00;;;37.80;22.00;;;;;;20914536;28;20519;-58
2023/08/21 16:50:30;;;;;;;5.05;2.50;;;37.80;21.80;;;;;;20913264;28;20561;-57
2023/08/21 17:00:31;;;;;;;4.18;2.20;;;37.90;21.50;;;;;;20914725;28;20047;-57
2023/08/21 17:10:31;;;;;;;5.07;2.08;;;37.80;21.50;;;;;;20912973;28;20085;-58
2023/08/21 17:20:33;;;;;;;5.65;2.35;;;37.70;21.10;;;;;;20912379;28;20074;-56
2023/08/21 17:30:35;;;;;;;4.88;2.45;;;37.70;21.20;;;;;;20911847;28;20055;-57
2023/08/21 17:40:36;;;;;;;16.52;12.75;;;37.60;21.70;;;;;;20920125;28;20045;-57
2023/08/21 17:50:36;;;;;;;4.80;3.38;;;37.50;21.50;;;;;;20928166;28;20129;-57
2023/08/21 18:00:37;;;;;;;4.40;2.40;;;37.20;21.50;;;;;;20928165;28;20084;-57
2023/08/21 18:10:38;;;;;;;6.05;2.13;;;37.20;21.60;;;;;;20928430;28;20052;-58
2023/08/21 18:20:51;;;;;;;3.75;2.22;;;37.20;21.60;;;;;;20925975;28;20048;-57
2023/08/21 18:30:54;;;;;;;4.43;3.08;;;37.10;21.50;;;;;;20924576;28;20061;-57
2023/08/21 18:40:57;;;;;;;9.20;4.72;;;36.60;22.20;;;;;;20925779;28;20541;-57
2023/08/21 18:50:58;;;;;;;8.30;3.45;;;36.40;22.70;;;;;;20924067;28;20049;-56
2023/08/21 19:00:59;;;;;;;8.80;4.57;;;36.20;23.00;;;;;;20923869;28;20045;-57
2023/08/21 19:11:01;;;;;;;8.23;4.00;;;36.00;23.30;;;;;;20922936;28;20305;-56
2023/08/21 19:21:02;;;;;;;9.80;3.88;;;35.80;23.70;;;;;;20922283;28;20053;-58
2023/08/21 19:31:07;;;;;;;9.23;4.82;;;35.50;24.00;;;;;;20922382;28;20103;-57
2023/08/21 19:41:11;;;;;;;10.52;4.88;;;35.30;24.20;;;;;;20920156;28;20068;-57
2023/08/21 19:51:12;;;;;;;10.65;5.47;;;35.20;24.60;;;;;;20919082;28;20091;-57
2023/08/21 20:01:13;;;;;;;10.48;5.05;;;35.00;25.20;;;;;;20919342;28;20447;-58
2023/08/21 20:11:14;;;;;;;13.32;7.32;;;34.80;25.30;;;;;;20917592;28;20053;-57
2023/08/21 20:21:19;;;;;;;9.52;6.03;;;34.70;26.00;;;;;;20917865;28;20481;-56
2023/08/21 20:31:20;;;;;;;12.25;5.70;;;34.40;26.60;;;;;;20916122;28;20080;-57
2023/08/21 20:41:20;;;;;;;13.73;6.72;;;34.20;27.10;;;;;;20915105;28;20052;-57
2023/08/21 20:51:22;;;;;;;13.80;6.28;;;34.20;26.10;;;;;;20914265;28;20555;-58
2023/08/21 21:01:23;;;;;;;9.60;4.72;;;34.10;25.70;;;;;;20914195;28;20561;-57
2023/08/21 21:11:23;;;;;;;7.80;3.35;;;34.00;25.20;;;;;;20914047;28;20478;-56
2023/08/21 21:21:24;;;;;;;9.50;3.38;;;33.90;24.30;;;;;;20841203;28;20099;-57
2023/08/21 21:31:25;;;;;;;9.85;3.35;;;33.80;24.50;;;;;;20827740;28;20111;-56
2023/08/21 21:41:26;;;;;;;8.50;2.90;;;33.70;24.20;;;;;;20822009;28;20049;-58
2023/08/21 21:51:27;;;;;;;9.75;3.65;;;33.50;23.90;;;;;;20824719;28;20046;-57
2023/08/21 22:01:27;;;;;;;9.15;2.92;;;33.50;24.00;;;;;;20830088;28;20399;-59
2023/08/21 22:11:28;;;;;;;9.57;3.70;;;33.30;23.20;;;;;;20828784;28;20433;-57
2023/08/21 22:21:30;;;;;;;8.63;2.70;;;33.20;23.00;;;;;;20828541;28;20495;-56
2023/08/21 22:31:31;;;;;;;6.82;2.92;;;33.10;22.80;;;;;;20840049;28;20069;-58
2023/08/21 22:41:32;;;;;;;9.93;4.55;;;33.10;23.10;;;;;;20842728;28;20678;-56
2023/08/21 22:51:32;;;;;;;8.45;2.63;;;32.90;22.60;;;;;;20842731;28;20478;-56
2023/08/21 23:01:33;;;;;;;9.50;2.60;;;32.70;22.60;;;;;;20841912;28;20042;-56
2023/08/21 23:11:34;;;;;;;7.45;2.63;;;32.60;22.50;;;;;;20841029;28;20045;-56
2023/08/21 23:21:35;;;;;;;14.73;3.05;;;32.40;22.60;;;;;;20840766;28;20045;-56
2023/08/21 23:31:35;;;;;;;7.63;2.72;;;32.40;22.50;;;;;;20838302;28;20064;-55
2023/08/21 23:41:36;;;;;;;6.90;2.85;;;32.30;22.60;;;;;;20838613;28;20543;-57
2023/08/21 23:51:37;;;;;;;11.13;2.88;;;32.10;22.50;;;;;;20838136;28;20045;-56
